Time;durP1;ratioP1;P1;durP2;ratioP2;P2;SDS_P1;SDS_P2;PMS_P1;PMS_P2;Temp;Humidity;BMP_temperature;BMP_pressure;BME280_temperature;BME280_humidity;BME280_pressure;Samples;Min_cycle;Max_cycle;Signal;HPM_P1;HPM_P2
2023/07/09 00:02:17;;;;;;;11.55;5.90;;;;;;;;;;5075772;28;20335;-70
2023/07/09 00:04:44;;;;;;;9.25;6.05;;;;;;;;;;5075880;28;20139;-70
2023/07/09 00:07:27;;;;;;;10.82;6.25;;;;;;;;;;5075670;28;20394;-71
2023/07/09 00:09:54;;;;;;;10.25;5.97;;;;;;;;;;5075029;28;20056;-71
2023/07/09 00:12:20;;;;;;;8.13;6.00;;;;;;;;;;5075890;28;20131;-71
2023/07/09 00:14:46;;;;;;;15.75;6.38;;;;;;;;;;5075395;28;20040;-71
2023/07/09 00:17:19;;;;;;;10.60;6.22;;;;;;;;;;5075594;28;20040;-71
2023/07/09 00:19:45;;;;;;;8.35;5.90;;;;;;;;;;5075292;28;20497;-71
2023/07/09 00:22:16;;;;;;;10.50;6.28;;;;;;;;;;5074371;28;20390;-71
2023/07/09 00:24:44;;;;;;;9.30;6.38;;;;;;;;;;5075223;28;20553;-71
2023/07/09 00:27:10;;;;;;;9.30;6.05;;;;;;;;;;5074105;28;20055;-71
2023/07/09 00:29:36;;;;;;;10.70;5.95;;;;;;;;;;5075189;28;20484;-71
2023/07/09 00:32:03;;;;;;;9.95;6.32;;;;;;;;;;5073935;28;20493;-71
2023/07/09 00:34:29;;;;;;;9.57;5.90;;;;;;;;;;5075347;28;20056;-70
2023/07/09 00:36:55;;;;;;;12.70;6.57;;;;;;;;;;5073712;28;20056;-71
2023/07/09 00:39:22;;;;;;;10.73;6.05;;;;;;;;;;5074640;28;20037;-72
2023/07/09 00:41:48;;;;;;;10.68;6.35;;;;;;;;;;5075228;28;20400;-71
2023/07/09 00:44:21;;;;;;;10.00;6.00;;;;;;;;;;5075304;28;20047;-71
2023/07/09 00:46:50;;;;;;;10.50;5.82;;;;;;;;;;5073711;28;20084;-71
2023/07/09 00:49:36;;;;;;;9.70;6.32;;;;;;;;;;5074767;28;20141;-71
2023/07/09 00:52:22;;;;;;;13.73;6.22;;;;;;;;;;5072769;28;20090;-72
2023/07/09 00:54:50;;;;;;;10.13;6.57;;;;;;;;;;5054904;28;20041;-71
2023/07/09 00:57:18;;;;;;;10.55;6.50;;;;;;;;;;5054868;28;20103;-71
2023/07/09 00:59:45;;;;;;;8.93;6.40;;;;;;;;;;5054579;28;20072;-72
2023/07/09 01:02:11;;;;;;;9.88;6.22;;;;;;;;;;5053415;28;20048;-72
2023/07/09 01:04:39;;;;;;;8.82;6.53;;;;;;;;;;5051739;28;20056;-72
2023/07/09 01:07:05;;;;;;;12.88;6.38;;;;;;;;;;5053456;28;20520;-72
2023/07/09 01:09:35;;;;;;;10.73;6.22;;;;;;;;;;5054022;28;20060;-72
2023/07/09 01:12:08;;;;;;;9.38;5.78;;;;;;;;;;5053445;28;20055;-72
2023/07/09 01:14:35;;;;;;;10.38;6.07;;;;;;;;;;5053136;28;20064;-72
2023/07/09 01:17:07;;;;;;;13.35;6.57;;;;;;;;;;5053727;28;20501;-72
2023/07/09 01:19:44;;;;;;;10.50;6.60;;;;;;;;;;5066302;28;20119;-72
2023/07/09 01:22:14;;;;;;;10.52;6.50;;;;;;;;;;5092840;28;20047;-71
2023/07/09 01:24:51;;;;;;;13.98;6.75;;;;;;;;;;5094562;28;20393;-72
2023/07/09 01:27:20;;;;;;;11.45;6.30;;;;;;;;;;5092948;28;20043;-72
2023/07/09 01:29:48;;;;;;;9.75;6.78;;;;;;;;;;5090266;28;20094;-72
2023/07/09 01:32:17;;;;;;;11.55;6.88;;;;;;;;;;5074215;28;20535;-72
2023/07/09 01:34:43;;;;;;;11.05;7.07;;;;;;;;;;5073041;28;20044;-72
2023/07/09 01:37:09;;;;;;;10.30;7.22;;;;;;;;;;5072828;28;20041;-72
2023/07/09 01:39:35;;;;;;;8.43;6.57;;;;;;;;;;5074953;28;20052;-72
2023/07/09 01:42:02;;;;;;;13.15;7.18;;;;;;;;;;5056664;28;20090;-72
2023/07/09 01:44:29;;;;;;;11.57;7.20;;;;;;;;;;5093700;28;20044;-72
2023/07/09 01:46:55;;;;;;;9.70;6.78;;;;;;;;;;5082116;28;20090;-72
2023/07/09 01:49:21;;;;;;;10.10;6.75;;;;;;;;;;5083980;28;20114;-72
2023/07/09 01:51:49;;;;;;;10.95;6.53;;;;;;;;;;5075121;28;20052;-72
2023/07/09 01:54:16;;;;;;;12.38;7.10;;;;;;;;;;5056041;28;20041;-72
2023/07/09 01:56:42;;;;;;;11.38;6.63;;;;;;;;;;5055271;28;20045;-71
2023/07/09 01:59:10;;;;;;;10.77;6.28;;;;;;;;;;5075940;28;20040;-71
2023/07/09 02:01:38;;;;;;;9.52;6.68;;;;;;;;;;5091229;28;20036;-72
2023/07/09 02:04:04;;;;;;;11.43;7.07;;;;;;;;;;5094604;28;20051;-72
2023/07/09 02:06:31;;;;;;;12.60;6.72;;;;;;;;;;5093633;28;20044;-74
2023/07/09 02:08:58;;;;;;;11.85;6.95;;;;;;;;;;5074771;28;20060;-70
2023/07/09 02:11:25;;;;;;;10.88;6.78;;;;;;;;;;5087609;28;20048;-71
2023/07/09 02:13:51;;;;;;;8.93;6.47;;;;;;;;;;5093026;28;20346;-71
2023/07/09 02:16:17;;;;;;;10.93;6.50;;;;;;;;;;5093065;28;20036;-71
2023/07/09 02:18:43;;;;;;;11.20;6.97;;;;;;;;;;5092636;28;20405;-71
2023/07/09 02:21:09;;;;;;;11.82;6.72;;;;;;;;;;5084752;28;20037;-72
2023/07/09 02:23:35;;;;;;;10.18;6.25;;;;;;;;;;5073001;28;20063;-72
2023/07/09 02:26:01;;;;;;;11.50;6.65;;;;;;;;;;5073019;28;20079;-72
2023/07/09 02:28:28;;;;;;;11.07;6.60;;;;;;;;;;5084172;28;20070;-72
2023/07/09 02:30:54;;;;;;;9.30;6.70;;;;;;;;;;5090784;28;20052;-72
2023/07/09 02:33:20;;;;;;;9.10;6.72;;;;;;;;;;5072621;28;20047;-72
2023/07/09 02:35:46;;;;;;;10.25;6.55;;;;;;;;;;5071108;28;20142;-72
2023/07/09 02:38:12;;;;;;;12.43;6.85;;;;;;;;;;5072303;28;20051;-72
2023/07/09 02:40:39;;;;;;;11.77;6.65;;;;;;;;;;5072359;28;20048;-72
2023/07/09 02:43:06;;;;;;;9.95;7.30;;;;;;;;;;5071529;28;20101;-72
2023/07/09 02:45:32;;;;;;;9.20;7.22;;;;;;;;;;5072733;28;20045;-72
2023/07/09 02:47:58;;;;;;;10.63;7.22;;;;;;;;;;5071666;28;20374;-72
2023/07/09 02:50:24;;;;;;;10.18;7.40;;;;;;;;;;5071716;28;20097;-72
2023/07/09 02:52:50;;;;;;;11.45;7.25;;;;;;;;;;5071292;28;20106;-72
2023/07/09 02:55:16;;;;;;;10.60;7.32;;;;;;;;;;5072374;28;20044;-72
2023/07/09 02:57:42;;;;;;;12.13;7.72;;;;;;;;;;5070077;28;20040;-72
2023/07/09 03:00:08;;;;;;;10.07;6.95;;;;;;;;;;5070020;28;20131;-72
2023/07/09 03:02:35;;;;;;;13.23;7.53;;;;;;;;;;5072751;28;20059;-72
2023/07/09 03:05:01;;;;;;;13.30;7.32;;;;;;;;;;5072674;28;20055;-72
2023/07/09 03:07:27;;;;;;;12.65;7.70;;;;;;;;;;5072528;28;20492;-72
2023/07/09 03:09:53;;;;;;;9.82;7.68;;;;;;;;;;5069529;28;20059;-71
2023/07/09 03:12:19;;;;;;;10.18;7.28;;;;;;;;;;5071950;28;20066;-72
2023/07/09 03:14:48;;;;;;;14.15;8.10;;;;;;;;;;5072331;28;20115;-71
2023/07/09 03:17:14;;;;;;;11.57;7.32;;;;;;;;;;5072622;28;20048;-72
2023/07/09 03:19:40;;;;;;;11.82;7.57;;;;;;;;;;5072328;28;20101;-72
2023/07/09 03:22:06;;;;;;;11.95;7.15;;;;;;;;;;5072162;28;20127;-72
2023/07/09 03:24:32;;;;;;;10.60;7.15;;;;;;;;;;5072272;28;20045;-72
2023/07/09 03:26:59;;;;;;;11.95;7.57;;;;;;;;;;5061918;28;20045;-72
2023/07/09 03:29:25;;;;;;;11.10;7.55;;;;;;;;;;5050670;28;20100;-72
2023/07/09 03:31:51;;;;;;;10.10;7.30;;;;;;;;;;5066803;28;20106;-72
2023/07/09 03:34:17;;;;;;;9.88;7.15;;;;;;;;;;5072488;28;20124;-72
2023/07/09 03:36:43;;;;;;;10.07;7.30;;;;;;;;;;5091793;28;20496;-72
2023/07/09 03:39:09;;;;;;;12.75;7.63;;;;;;;;;;5085245;28;20112;-72
2023/07/09 03:41:35;;;;;;;11.90;7.10;;;;;;;;;;5071850;28;20123;-72
2023/07/09 03:44:02;;;;;;;10.93;7.32;;;;;;;;;;5070662;28;20040;-72
2023/07/09 03:46:29;;;;;;;10.60;7.50;;;;;;;;;;5081666;28;20044;-72
2023/07/09 03:48:55;;;;;;;11.57;7.63;;;;;;;;;;5070044;28;20457;-72
2023/07/09 03:51:21;;;;;;;10.93;7.30;;;;;;;;;;5071679;28;20500;-72
2023/07/09 03:53:47;;;;;;;9.45;7.28;;;;;;;;;;5071896;28;20037;-72
2023/07/09 03:56:13;;;;;;;11.15;7.20;;;;;;;;;;5071933;28;20045;-72
2023/07/09 03:58:40;;;;;;;12.60;7.50;;;;;;;;;;5071858;28;20076;-71
2023/07/09 04:01:06;;;;;;;13.68;7.45;;;;;;;;;;5062634;28;20131;-72
2023/07/09 04:03:32;;;;;;;12.73;7.65;;;;;;;;;;5062163;28;20043;-72
2023/07/09 04:05:58;;;;;;;12.00;7.28;;;;;;;;;;5071865;28;20443;-72
2023/07/09 04:08:25;;;;;;;10.85;7.10;;;;;;;;;;5070714;28;20423;-72
2023/07/09 04:10:54;;;;;;;10.05;7.28;;;;;;;;;;5071470;28;20106;-71
2023/07/09 04:13:20;;;;;;;11.00;7.70;;;;;;;;;;5071669;28;20049;-71
2023/07/09 04:15:46;;;;;;;9.63;7.35;;;;;;;;;;5071726;28;20083;-72
2023/07/09 04:18:12;;;;;;;11.35;7.32;;;;;;;;;;5071428;28;20139;-72
2023/07/09 04:20:39;;;;;;;11.05;7.18;;;;;;;;;;5070463;28;20048;-72
2023/07/09 04:23:06;;;;;;;8.35;7.18;;;;;;;;;;5071927;28;20591;-72
2023/07/09 04:25:32;;;;;;;12.57;7.22;;;;;;;;;;5071571;28;20166;-72
2023/07/09 04:27:59;;;;;;;12.00;7.45;;;;;;;;;;5053324;28;20544;-72
2023/07/09 04:30:25;;;;;;;11.43;7.20;;;;;;;;;;5054220;28;20056;-71
2023/07/09 04:32:52;;;;;;;10.57;7.20;;;;;;;;;;5071389;28;20040;-72
2023/07/09 04:35:18;;;;;;;12.82;7.57;;;;;;;;;;5069186;28;20115;-71
2023/07/09 04:37:44;;;;;;;10.23;7.30;;;;;;;;;;5071480;28;20048;-72
2023/07/09 04:40:11;;;;;;;11.15;7.15;;;;;;;;;;5071085;28;20132;-72
2023/07/09 04:42:39;;;;;;;11.90;6.90;;;;;;;;;;5071472;28;20497;-71
2023/07/09 04:45:05;;;;;;;11.63;6.63;;;;;;;;;;5071221;28;20053;-72
2023/07/09 04:47:32;;;;;;;11.48;7.35;;;;;;;;;;5086356;28;20047;-72
2023/07/09 04:49:58;;;;;;;10.40;7.50;;;;;;;;;;5074772;28;20138;-72
2023/07/09 04:52:24;;;;;;;11.68;7.38;;;;;;;;;;5076054;28;21401;-72
2023/07/09 04:54:50;;;;;;;13.07;7.57;;;;;;;;;;5085920;28;20041;-72
2023/07/09 04:57:17;;;;;;;12.50;7.38;;;;;;;;;;5075332;28;20090;-72
2023/07/09 04:59:43;;;;;;;11.02;7.18;;;;;;;;;;5072272;28;20536;-72
2023/07/09 05:02:10;;;;;;;9.60;6.93;;;;;;;;;;5074578;28;20382;-72
2023/07/09 05:04:36;;;;;;;11.75;7.75;;;;;;;;;;5074825;28;20045;-72
2023/07/09 05:07:02;;;;;;;11.38;7.30;;;;;;;;;;5066988;28;20525;-72
2023/07/09 05:09:28;;;;;;;15.63;8.10;;;;;;;;;;5053303;28;20095;-72
2023/07/09 05:11:54;;;;;;;9.10;7.25;;;;;;;;;;5068969;28;20217;-71
2023/07/09 05:14:20;;;;;;;10.38;7.22;;;;;;;;;;5074387;28;20123;-72
2023/07/09 05:16:46;;;;;;;10.52;7.15;;;;;;;;;;5073972;28;20453;-72
2023/07/09 05:19:13;;;;;;;10.70;7.20;;;;;;;;;;5072074;28;20508;-73
2023/07/09 05:21:39;;;;;;;10.95;7.72;;;;;;;;;;5074528;28;20052;-74
2023/07/09 05:24:05;;;;;;;11.23;7.30;;;;;;;;;;5074548;28;20040;-74
2023/07/09 05:26:31;;;;;;;8.98;6.63;;;;;;;;;;5080454;28;20131;-73
2023/07/09 05:28:58;;;;;;;9.15;6.95;;;;;;;;;;5077880;28;20040;-74
2023/07/09 05:31:24;;;;;;;10.88;6.70;;;;;;;;;;5072730;28;20102;-74
2023/07/09 05:33:50;;;;;;;10.10;6.82;;;;;;;;;;5074092;28;20102;-75
2023/07/09 05:36:18;;;;;;;9.27;6.72;;;;;;;;;;5074128;28;20091;-74
2023/07/09 05:38:45;;;;;;;9.52;6.88;;;;;;;;;;5081226;28;20047;-74
2023/07/09 05:41:11;;;;;;;8.77;6.65;;;;;;;;;;5073398;28;20118;-74
2023/07/09 05:43:38;;;;;;;12.60;7.10;;;;;;;;;;5073489;28;20048;-74
2023/07/09 05:46:05;;;;;;;14.40;7.15;;;;;;;;;;5072539;28;20078;-74
2023/07/09 05:48:33;;;;;;;10.02;7.10;;;;;;;;;;5073963;28;20040;-74
2023/07/09 05:50:59;;;;;;;10.13;6.93;;;;;;;;;;5076827;28;20040;-74
2023/07/09 05:53:25;;;;;;;10.48;7.18;;;;;;;;;;5062937;28;20119;-74
2023/07/09 05:55:55;;;;;;;10.55;7.20;;;;;;;;;;5072366;28;20401;-74
2023/07/09 05:58:21;;;;;;;17.63;6.80;;;;;;;;;;5072017;28;20044;-74
2023/07/09 06:00:53;;;;;;;11.30;6.80;;;;;;;;;;5073350;28;20504;-74
2023/07/09 06:03:19;;;;;;;10.80;7.28;;;;;;;;;;5073638;28;20340;-74
2023/07/09 06:05:45;;;;;;;10.27;7.40;;;;;;;;;;5073442;28;20040;-74
2023/07/09 06:08:12;;;;;;;11.30;7.32;;;;;;;;;;5075095;28;20059;-74
2023/07/09 06:10:43;;;;;;;10.50;7.25;;;;;;;;;;5072745;28;20059;-74
2023/07/09 06:13:09;;;;;;;8.73;6.97;;;;;;;;;;5072022;28;20566;-74
2023/07/09 06:15:35;;;;;;;11.88;7.18;;;;;;;;;;5073503;28;20040;-74
2023/07/09 06:18:01;;;;;;;11.85;7.07;;;;;;;;;;5071724;28;20052;-74
2023/07/09 06:20:28;;;;;;;9.30;7.22;;;;;;;;;;5071069;28;20080;-74
2023/07/09 06:22:54;;;;;;;11.82;7.15;;;;;;;;;;5076371;28;20036;-74
2023/07/09 06:25:20;;;;;;;9.23;6.97;;;;;;;;;;5084433;28;20043;-73
2023/07/09 06:27:46;;;;;;;10.10;7.57;;;;;;;;;;5074610;28;20045;-73
2023/07/09 06:30:14;;;;;;;11.52;7.63;;;;;;;;;;5074880;28;20055;-73
2023/07/09 06:32:41;;;;;;;13.57;7.72;;;;;;;;;;5072320;28;20397;-74
2023/07/09 06:35:07;;;;;;;12.27;7.88;;;;;;;;;;5073298;28;20037;-74
2023/07/09 06:37:34;;;;;;;10.98;7.85;;;;;;;;;;5072553;28;20048;-73
2023/07/09 06:40:00;;;;;;;13.82;8.15;;;;;;;;;;5068181;28;20088;-72
2023/07/09 06:42:26;;;;;;;10.05;7.30;;;;;;;;;;5057324;28;20054;-73
2023/07/09 06:44:52;;;;;;;12.77;8.10;;;;;;;;;;5072494;28;20045;-73
2023/07/09 06:47:18;;;;;;;10.93;7.53;;;;;;;;;;5072678;28;20045;-72
2023/07/09 06:49:44;;;;;;;13.85;8.25;;;;;;;;;;5072497;28;20385;-72
2023/07/09 06:52:10;;;;;;;11.13;7.50;;;;;;;;;;5073721;28;20056;-72
2023/07/09 06:54:36;;;;;;;10.85;7.63;;;;;;;;;;5072558;28;20106;-72
2023/07/09 06:57:03;;;;;;;10.80;7.38;;;;;;;;;;5072404;28;20052;-72
2023/07/09 06:59:29;;;;;;;12.02;7.50;;;;;;;;;;5072213;28;20048;-73
2023/07/09 07:01:55;;;;;;;15.98;7.95;;;;;;;;;;5072046;28;20076;-74
2023/07/09 07:04:21;;;;;;;12.45;7.28;;;;;;;;;;5070676;28;20454;-74
2023/07/09 07:06:47;;;;;;;11.05;7.25;;;;;;;;;;5087944;28;20044;-75
2023/07/09 07:09:14;;;;;;;10.80;7.53;;;;;;;;;;5091266;28;20052;-74
2023/07/09 07:11:40;;;;;;;10.55;7.18;;;;;;;;;;5064517;28;20121;-74
2023/07/09 07:14:07;;;;;;;11.70;7.82;;;;;;;;;;5065493;28;20075;-74
2023/07/09 07:16:33;;;;;;;9.77;7.43;;;;;;;;;;5076017;28;20036;-74
2023/07/09 07:18:59;;;;;;;11.43;6.95;;;;;;;;;;5091340;28;20040;-74
2023/07/09 07:21:25;;;;;;;13.55;7.45;;;;;;;;;;5090608;28;20043;-74
2023/07/09 07:23:51;;;;;;;10.55;7.22;;;;;;;;;;5088954;28;20463;-73
2023/07/09 07:26:17;;;;;;;10.00;7.03;;;;;;;;;;5089679;28;20079;-73
2023/07/09 07:28:43;;;;;;;9.85;7.20;;;;;;;;;;5090310;28;20051;-74
2023/07/09 07:31:10;;;;;;;10.25;6.85;;;;;;;;;;5077914;28;20052;-74
2023/07/09 07:33:36;;;;;;;9.73;6.82;;;;;;;;;;5083311;28;20404;-74
2023/07/09 07:36:06;;;;;;;13.25;7.22;;;;;;;;;;5071971;28;20044;-74
2023/07/09 07:38:32;;;;;;;11.13;7.05;;;;;;;;;;5071657;28;20033;-74
2023/07/09 07:40:58;;;;;;;10.68;6.97;;;;;;;;;;5059339;28;20405;-74
2023/07/09 07:43:24;;;;;;;9.60;7.28;;;;;;;;;;5051896;28;20382;-74
2023/07/09 07:45:50;;;;;;;12.70;7.25;;;;;;;;;;5051743;28;20045;-74
2023/07/09 07:48:16;;;;;;;12.25;6.95;;;;;;;;;;5052063;28;20493;-73
2023/07/09 07:50:43;;;;;;;10.90;7.18;;;;;;;;;;5073444;28;20056;-71
2023/07/09 07:53:09;;;;;;;10.55;7.43;;;;;;;;;;5082447;28;20072;-71
2023/07/09 07:55:37;;;;;;;10.25;7.68;;;;;;;;;;5072001;28;20052;-71
2023/07/09 07:58:03;;;;;;;10.85;7.38;;;;;;;;;;5071884;28;20040;-71
2023/07/09 08:00:30;;;;;;;13.88;7.65;;;;;;;;;;5066084;28;20052;-71
2023/07/09 08:02:56;;;;;;;11.27;7.10;;;;;;;;;;5050792;28;20396;-72
2023/07/09 08:05:23;;;;;;;15.95;7.95;;;;;;;;;;5051520;28;20085;-72
2023/07/09 08:07:49;;;;;;;12.48;7.75;;;;;;;;;;5051869;28;20098;-72
2023/07/09 08:10:16;;;;;;;11.60;7.60;;;;;;;;;;5050804;28;20061;-71
2023/07/09 08:12:42;;;;;;;9.88;6.78;;;;;;;;;;5050567;28;20049;-71
2023/07/09 08:15:08;;;;;;;16.00;7.65;;;;;;;;;;5047809;28;20407;-71
2023/07/09 08:17:34;;;;;;;11.32;7.50;;;;;;;;;;5051618;28;20088;-71
2023/07/09 08:20:00;;;;;;;12.90;7.70;;;;;;;;;;5051002;28;20152;-71
2023/07/09 08:22:26;;;;;;;10.55;7.53;;;;;;;;;;5054182;28;20049;-71
2023/07/09 08:24:53;;;;;;;13.57;7.07;;;;;;;;;;5054121;28;20049;-71
2023/07/09 08:27:19;;;;;;;13.90;7.40;;;;;;;;;;5054157;28;20037;-72
2023/07/09 08:29:45;;;;;;;11.75;7.60;;;;;;;;;;5051307;28;20049;-72
2023/07/09 08:32:12;;;;;;;10.77;7.75;;;;;;;;;;5053678;28;20394;-72
2023/07/09 08:34:39;;;;;;;11.80;6.80;;;;;;;;;;5054172;28;20420;-72
2023/07/09 08:37:06;;;;;;;10.73;7.20;;;;;;;;;;5055343;28;20045;-72
2023/07/09 08:39:32;;;;;;;15.73;7.15;;;;;;;;;;5055349;28;20037;-72
2023/07/09 08:42:02;;;;;;;16.08;7.40;;;;;;;;;;5074864;28;20049;-72
2023/07/09 08:44:47;;;;;;;9.23;6.75;;;;;;;;;;5074783;28;20032;-71
2023/07/09 08:47:26;;;;;;;12.05;8.05;;;;;;;;;;5055036;28;20045;-72
2023/07/09 08:49:55;;;;;;;16.02;7.00;;;;;;;;;;5054671;28;20055;-71
2023/07/09 08:52:27;;;;;;;12.93;7.68;;;;;;;;;;5055107;28;20103;-71
2023/07/09 08:54:55;;;;;;;11.93;7.88;;;;;;;;;;5053190;28;20144;-71
2023/07/09 08:57:24;;;;;;;9.18;7.30;;;;;;;;;;5053711;28;20056;-71
2023/07/09 08:59:55;;;;;;;14.85;8.68;;;;;;;;;;5054467;28;20045;-70
2023/07/09 09:02:33;;;;;;;17.38;8.68;;;;;;;;;;5054717;28;20059;-71
2023/07/09 09:04:59;;;;;;;13.85;8.68;;;;;;;;;;5054359;28;20067;-71
2023/07/09 09:07:40;;;;;;;13.48;9.43;;;;;;;;;;5054633;28;20420;-71
2023/07/09 09:10:11;;;;;;;14.93;9.13;;;;;;;;;;5053447;28;20411;-72
2023/07/09 09:12:39;;;;;;;13.43;8.32;;;;;;;;;;5073850;28;20053;-71
2023/07/09 09:15:13;;;;;;;13.18;9.15;;;;;;;;;;5071176;28;20062;-71
2023/07/09 09:17:40;;;;;;;14.27;9.50;;;;;;;;;;5074096;28;20127;-71
2023/07/09 09:20:17;;;;;;;13.10;8.40;;;;;;;;;;5074090;28;20098;-71
2023/07/09 09:22:55;;;;;;;14.55;8.50;;;;;;;;;;5074570;28;20421;-71
2023/07/09 09:25:28;;;;;;;12.57;8.45;;;;;;;;;;5073430;28;20405;-71
2023/07/09 09:27:54;;;;;;;14.65;9.63;;;;;;;;;;5072982;28;20060;-71
2023/07/09 09:30:23;;;;;;;13.35;9.55;;;;;;;;;;5072711;28;20048;-71
2023/07/09 09:32:53;;;;;;;13.80;9.93;;;;;;;;;;5072297;28;20048;-71
2023/07/09 09:35:20;;;;;;;10.75;8.75;;;;;;;;;;5074036;28;20055;-71
2023/07/09 09:37:53;;;;;;;14.85;9.32;;;;;;;;;;5073390;28;20083;-71
2023/07/09 09:40:23;;;;;;;12.10;9.23;;;;;;;;;;5071095;28;20405;-71
2023/07/09 09:42:50;;;;;;;10.85;8.68;;;;;;;;;;5058471;28;20192;-71
2023/07/09 09:45:17;;;;;;;12.88;9.43;;;;;;;;;;5053481;28;20433;-71
2023/07/09 09:47:44;;;;;;;12.35;8.95;;;;;;;;;;5053604;28;20044;-72
2023/07/09 09:50:14;;;;;;;12.75;9.30;;;;;;;;;;5053544;28;20052;-72
2023/07/09 09:52:40;;;;;;;12.48;9.18;;;;;;;;;;5053803;28;20050;-72
2023/07/09 09:55:20;;;;;;;12.98;9.25;;;;;;;;;;5053687;28;20401;-72
2023/07/09 09:57:53;;;;;;;12.25;8.93;;;;;;;;;;5053744;28;20182;-72
2023/07/09 10:00:22;;;;;;;16.88;10.02;;;;;;;;;;5053244;28;20517;-72
2023/07/09 10:02:48;;;;;;;14.73;9.02;;;;;;;;;;5085956;28;20148;-72
2023/07/09 10:05:15;;;;;;;14.88;10.30;;;;;;;;;;5052087;28;20053;-72
2023/07/09 10:08:02;;;;;;;17.23;10.35;;;;;;;;;;5053420;28;20056;-72
2023/07/09 10:10:30;;;;;;;13.93;8.60;;;;;;;;;;5052534;28;20082;-71
2023/07/09 10:13:11;;;;;;;11.95;8.50;;;;;;;;;;5053394;28;20047;-71
2023/07/09 10:15:40;;;;;;;14.57;8.82;;;;;;;;;;5053414;28;20167;-71
2023/07/09 10:18:19;;;;;;;11.95;9.07;;;;;;;;;;5051912;28;20045;-72
2023/07/09 10:20:48;;;;;;;13.40;8.95;;;;;;;;;;5066532;28;20048;-72
2023/07/09 10:23:14;;;;;;;12.57;8.57;;;;;;;;;;5072799;28;20049;-71
2023/07/09 10:25:44;;;;;;;11.43;8.02;;;;;;;;;;5071246;28;20114;-72
2023/07/09 10:28:34;;;;;;;14.35;7.65;;;;;;;;;;5072896;28;20169;-72
2023/07/09 10:31:08;;;;;;;10.32;7.55;;;;;;;;;;5071287;28;20175;-72
2023/07/09 10:33:34;;;;;;;9.93;7.22;;;;;;;;;;5072837;28;20501;-72
2023/07/09 10:36:12;;;;;;;10.80;7.80;;;;;;;;;;5070862;28;20044;-70
2023/07/09 10:38:45;;;;;;;13.38;8.40;;;;;;;;;;5071118;28;20459;-71
2023/07/09 10:41:13;;;;;;;13.85;7.88;;;;;;;;;;5071645;28;20441;-71
2023/07/09 10:43:45;;;;;;;12.15;8.20;;;;;;;;;;5072500;28;20040;-71
2023/07/09 10:46:17;;;;;;;12.48;8.18;;;;;;;;;;5072503;28;20047;-72
2023/07/09 10:48:47;;;;;;;14.18;7.13;;;;;;;;;;5072528;28;20068;-71
2023/07/09 10:51:25;;;;;;;8.95;6.70;;;;;;;;;;5072393;28;20215;-71
2023/07/09 10:53:56;;;;;;;11.02;7.38;;;;;;;;;;5073431;28;20090;-70
2023/07/09 10:56:25;;;;;;;11.00;7.00;;;;;;;;;;5076413;28;20048;-71
2023/07/09 10:59:05;;;;;;;11.07;7.15;;;;;;;;;;5075367;28;20457;-71
2023/07/09 11:02:01;;;;;;;12.60;6.90;;;;;;;;;;5072447;28;20101;-71
2023/07/09 11:04:30;;;;;;;10.65;6.88;;;;;;;;;;5067693;28;20142;-72
2023/07/09 11:07:00;;;;;;;9.10;6.60;;;;;;;;;;5072133;28;20127;-72
2023/07/09 11:09:32;;;;;;;10.05;6.70;;;;;;;;;;5071963;28;20408;-73
2023/07/09 11:12:03;;;;;;;9.20;6.63;;;;;;;;;;5072029;28;20074;-72
2023/07/09 11:14:37;;;;;;;10.20;7.22;;;;;;;;;;5072276;28;20131;-72
2023/07/09 11:17:05;;;;;;;10.55;6.50;;;;;;;;;;5071074;28;20044;-73
2023/07/09 11:19:31;;;;;;;12.05;6.68;;;;;;;;;;5071944;28;20044;-72
2023/07/09 11:22:01;;;;;;;11.10;6.40;;;;;;;;;;5071936;28;20040;-71
2023/07/09 11:24:30;;;;;;;11.25;6.80;;;;;;;;;;5072349;28;20429;-73
2023/07/09 11:26:59;;;;;;;8.05;6.20;;;;;;;;;;5071523;28;20062;-73
2023/07/09 11:29:25;;;;;;;8.40;5.80;;;;;;;;;;5071354;28;20109;-73
2023/07/09 11:31:51;;;;;;;11.27;6.15;;;;;;;;;;5071867;28;20040;-72
2023/07/09 11:34:20;;;;;;;9.27;5.82;;;;;;;;;;5070983;28;20036;-72
2023/07/09 11:36:51;;;;;;;9.07;5.75;;;;;;;;;;5070756;28;20044;-72
2023/07/09 11:39:24;;;;;;;10.23;6.35;;;;;;;;;;5071042;28;20227;-72
2023/07/09 11:41:51;;;;;;;9.27;5.60;;;;;;;;;;5068516;28;20546;-72
2023/07/09 11:44:21;;;;;;;11.57;6.07;;;;;;;;;;5071374;28;20124;-72
2023/07/09 11:46:56;;;;;;;11.55;6.55;;;;;;;;;;5071764;28;20068;-72
2023/07/09 11:49:25;;;;;;;9.60;6.50;;;;;;;;;;5071376;28;20105;-71
2023/07/09 11:51:54;;;;;;;10.65;6.00;;;;;;;;;;5071761;28;20057;-71
2023/07/09 11:54:20;;;;;;;8.95;6.03;;;;;;;;;;5071763;28;20045;-72
2023/07/09 11:56:57;;;;;;;9.75;6.25;;;;;;;;;;5075681;28;20044;-72
2023/07/09 11:59:23;;;;;;;8.70;6.53;;;;;;;;;;5075753;28;20046;-72
2023/07/09 12:01:51;;;;;;;12.88;6.15;;;;;;;;;;5075535;28;20052;-71
2023/07/09 12:04:18;;;;;;;8.15;6.50;;;;;;;;;;5076372;28;20047;-72
2023/07/09 12:06:44;;;;;;;6.82;5.80;;;;;;;;;;5075494;28;20059;-72
2023/07/09 12:09:21;;;;;;;9.00;6.18;;;;;;;;;;5073908;28;20088;-72
2023/07/09 12:11:48;;;;;;;10.68;6.03;;;;;;;;;;5059140;28;20135;-72
2023/07/09 12:14:19;;;;;;;9.43;5.88;;;;;;;;;;5055632;28;20103;-73
2023/07/09 12:16:46;;;;;;;11.02;5.85;;;;;;;;;;5055547;28;20043;-72
2023/07/09 12:19:13;;;;;;;8.00;5.88;;;;;;;;;;5055607;28;20057;-72
2023/07/09 12:21:46;;;;;;;7.50;5.10;;;;;;;;;;5055361;28;20072;-72
2023/07/09 12:24:20;;;;;;;8.52;5.20;;;;;;;;;;5055564;28;20041;-72
2023/07/09 12:26:50;;;;;;;8.30;5.20;;;;;;;;;;5055287;28;20409;-72
2023/07/09 12:29:16;;;;;;;8.18;5.18;;;;;;;;;;5055360;28;20417;-72
2023/07/09 12:31:43;;;;;;;6.53;5.00;;;;;;;;;;5054415;28;20103;-72
2023/07/09 12:34:15;;;;;;;6.53;4.97;;;;;;;;;;5054573;28;20493;-73
2023/07/09 12:36:49;;;;;;;8.45;5.38;;;;;;;;;;5055117;28;20387;-72
2023/07/09 12:39:17;;;;;;;8.68;5.13;;;;;;;;;;5055703;28;20354;-72
2023/07/09 12:41:43;;;;;;;7.65;5.25;;;;;;;;;;5054855;28;20132;-72
2023/07/09 12:44:15;;;;;;;8.60;5.20;;;;;;;;;;5055213;28;20037;-72
2023/07/09 12:46:41;;;;;;;11.27;5.68;;;;;;;;;;5055035;28;20465;-72
2023/07/09 12:49:07;;;;;;;8.05;5.45;;;;;;;;;;5054639;28;20044;-72
2023/07/09 12:51:34;;;;;;;9.73;5.32;;;;;;;;;;5053535;28;20048;-72
2023/07/09 12:54:03;;;;;;;7.40;5.10;;;;;;;;;;5054749;28;20053;-72
2023/07/09 12:56:29;;;;;;;7.53;5.50;;;;;;;;;;5054824;28;20041;-72
2023/07/09 12:58:58;;;;;;;7.82;5.20;;;;;;;;;;5054810;28;20374;-72
2023/07/09 13:01:25;;;;;;;9.50;5.80;;;;;;;;;;5054742;28;20045;-72
2023/07/09 13:03:57;;;;;;;9.48;5.68;;;;;;;;;;5054305;28;20520;-72
2023/07/09 13:06:23;;;;;;;8.93;5.78;;;;;;;;;;5053352;28;20207;-71
2023/07/09 13:08:55;;;;;;;8.27;5.40;;;;;;;;;;5054246;28;20468;-73
2023/07/09 13:11:21;;;;;;;7.05;5.15;;;;;;;;;;5054168;28;20095;-71
2023/07/09 13:13:57;;;;;;;8.60;5.45;;;;;;;;;;5053315;28;20043;-72
2023/07/09 13:16:24;;;;;;;9.25;5.40;;;;;;;;;;5054637;28;20049;-73
2023/07/09 13:18:50;;;;;;;8.93;5.63;;;;;;;;;;5053005;28;20465;-72
2023/07/09 13:21:17;;;;;;;11.07;5.50;;;;;;;;;;5054074;28;20084;-72
2023/07/09 13:23:44;;;;;;;8.30;5.30;;;;;;;;;;5053902;28;20072;-72
2023/07/09 13:26:10;;;;;;;8.15;5.90;;;;;;;;;;5053902;28;20055;-72
2023/07/09 13:28:36;;;;;;;8.73;6.00;;;;;;;;;;5053831;28;20106;-72
2023/07/09 13:31:10;;;;;;;9.82;5.80;;;;;;;;;;5086184;28;20041;-72
2023/07/09 13:33:39;;;;;;;8.80;5.45;;;;;;;;;;5054182;28;20055;-72
2023/07/09 13:36:06;;;;;;;7.88;5.60;;;;;;;;;;5053835;28;20118;-72
2023/07/09 13:38:33;;;;;;;11.48;5.70;;;;;;;;;;5083653;28;20106;-72
2023/07/09 13:41:00;;;;;;;9.52;5.50;;;;;;;;;;5052615;28;20390;-72
2023/07/09 13:43:32;;;;;;;10.48;5.38;;;;;;;;;;5053916;28;20103;-72
2023/07/09 13:45:58;;;;;;;9.57;5.43;;;;;;;;;;5053616;28;20041;-72
2023/07/09 13:48:25;;;;;;;8.45;5.35;;;;;;;;;;5053800;28;20041;-73
2023/07/09 13:50:52;;;;;;;9.02;5.32;;;;;;;;;;5053693;28;20053;-72
2023/07/09 13:53:20;;;;;;;9.40;5.38;;;;;;;;;;5053932;28;20044;-71
2023/07/09 13:55:47;;;;;;;7.75;5.60;;;;;;;;;;5053879;28;20044;-72
2023/07/09 13:58:15;;;;;;;8.57;5.95;;;;;;;;;;5053997;28;20417;-71
2023/07/09 14:00:42;;;;;;;6.50;5.13;;;;;;;;;;5053363;28;20048;-72
2023/07/09 14:03:14;;;;;;;10.10;5.75;;;;;;;;;;5085919;28;20102;-72
2023/07/09 14:05:40;;;;;;;8.52;5.40;;;;;;;;;;5051871;28;20098;-73
2023/07/09 14:08:08;;;;;;;9.00;5.63;;;;;;;;;;5051525;28;20056;-72
2023/07/09 14:10:34;;;;;;;9.55;5.47;;;;;;;;;;5053084;28;20088;-72
2023/07/09 14:13:02;;;;;;;7.00;5.28;;;;;;;;;;5053518;28;20106;-72
2023/07/09 14:15:28;;;;;;;10.25;5.70;;;;;;;;;;5053310;28;20045;-72
2023/07/09 14:17:55;;;;;;;10.20;5.70;;;;;;;;;;5085055;28;20079;-71
2023/07/09 14:20:22;;;;;;;7.72;5.60;;;;;;;;;;5052917;28;20048;-72
2023/07/09 14:22:49;;;;;;;11.00;5.40;;;;;;;;;;5053559;28;20037;-73
2023/07/09 14:25:23;;;;;;;9.43;5.30;;;;;;;;;;5053141;28;20472;-72
2023/07/09 14:27:50;;;;;;;8.60;5.70;;;;;;;;;;5053626;28;20048;-72
2023/07/09 14:30:20;;;;;;;13.07;5.68;;;;;;;;;;5052666;28;20123;-72
2023/07/09 14:32:47;;;;;;;7.53;5.15;;;;;;;;;;5052940;28;20041;-72
2023/07/09 14:35:31;;;;;;;11.85;5.70;;;;;;;;;;5052475;28;20135;-72
2023/07/09 14:37:59;;;;;;;14.77;5.50;;;;;;;;;;5053148;28;20105;-73
2023/07/09 14:40:25;;;;;;;8.15;5.57;;;;;;;;;;5052421;28;20502;-72